createdAt,value
2022-09-28T00:00:18.574Z,16.25
2022-09-28T00:02:48.204Z,16.90
2022-09-28T00:05:17.195Z,16.93
2022-09-28T00:07:47.093Z,16.85
2022-09-28T00:10:17.725Z,16.42
2022-09-28T00:12:48.527Z,16.35
2022-09-28T00:15:18.932Z,15.70
2022-09-28T00:17:49.011Z,17.42
2022-09-28T00:20:19.505Z,16.67
2022-09-28T00:22:49.790Z,16.12
2022-09-28T00:25:21.124Z,16.48
2022-09-28T00:27:51.364Z,15.68
2022-09-28T00:30:23.701Z,16.20
2022-09-28T00:32:52.591Z,16.20
2022-09-28T00:35:22.368Z,15.78
2022-09-28T00:37:51.918Z,15.98
2022-09-28T00:40:21.204Z,15.50
2022-09-28T00:42:50.973Z,16.37
2022-09-28T00:45:23.619Z,17.10
2022-09-28T00:47:57.272Z,16.73
2022-09-28T00:50:32.669Z,17.30
2022-09-28T00:53:15.808Z,16.75
2022-09-28T00:55:56.797Z,17.48
2022-09-28T00:58:29.679Z,17.95
2022-09-28T01:01:00.402Z,17.25
2022-09-28T01:03:30.413Z,18.07
2022-09-28T01:06:02.055Z,16.48
2022-09-28T01:08:32.719Z,17.92
2022-09-28T01:11:04.004Z,17.75
2022-09-28T01:13:33.554Z,17.80
2022-09-28T01:16:50.261Z,17.05
2022-09-28T01:20:15.169Z,17.73
2022-09-28T01:23:13.013Z,17.40
2022-09-28T01:25:58.020Z,17.27
2022-09-28T01:28:30.073Z,17.05
2022-09-28T01:31:17.461Z,15.13
2022-09-28T01:34:06.529Z,14.93
2022-09-28T01:36:41.533Z,15.32
2022-09-28T01:39:18.410Z,15.13
2022-09-28T01:44:18.524Z,14.58
2022-09-28T01:46:49.251Z,14.13
2022-09-28T01:49:23.114Z,14.63
2022-09-28T01:52:12.700Z,14.47
2022-09-28T01:54:47.585Z,14.73
2022-09-28T01:57:32.276Z,13.43
2022-09-28T02:00:11.736Z,13.85
2022-09-28T02:03:02.203Z,13.72
2022-09-28T02:05:39.265Z,15.72
2022-09-28T02:08:39.727Z,14.13
2022-09-28T02:11:18.452Z,14.15
2022-09-28T02:16:44.744Z,14.65
2022-09-28T02:19:22.141Z,15.95
2022-09-28T02:22:25.206Z,14.68
2022-09-28T02:25:05.358Z,14.55
2022-09-28T02:27:49.171Z,14.83
2022-09-28T02:30:19.280Z,14.90
2022-09-28T02:32:50.894Z,15.83
2022-09-28T02:35:24.902Z,15.13
2022-09-28T02:37:55.042Z,14.45
2022-09-28T02:40:28.760Z,14.20
2022-09-28T02:43:18.809Z,14.55
2022-09-28T02:46:22.771Z,15.40
2022-09-28T02:49:20.853Z,14.28
2022-09-28T02:51:48.066Z,12.98
2022-09-28T02:54:41.091Z,14.15
2022-09-28T02:58:07.528Z,14.43
2022-09-28T03:00:43.810Z,14.83
2022-09-28T03:03:23.694Z,14.25
2022-09-28T03:06:07.184Z,13.50
2022-09-28T03:08:47.248Z,13.45
2022-09-28T03:11:30.228Z,14.07
2022-09-28T03:14:00.656Z,14.65
2022-09-28T03:16:32.605Z,14.90
2022-09-28T03:19:02.779Z,13.95
2022-09-28T03:21:32.308Z,14.15
2022-09-28T03:24:04.276Z,14.78
2022-09-28T03:26:33.749Z,13.93
2022-09-28T03:29:04.137Z,15.53
2022-09-28T03:31:34.947Z,12.93
2022-09-28T03:34:06.640Z,13.20
2022-09-28T03:36:36.819Z,14.60
2022-09-28T03:39:06.395Z,13.80
2022-09-28T03:41:36.674Z,14.15
2022-09-28T03:44:05.592Z,13.62
2022-09-28T03:46:35.729Z,13.45
2022-09-28T03:49:06.822Z,13.60
2022-09-28T03:51:36.496Z,14.58
2022-09-28T03:54:07.163Z,13.60
2022-09-28T03:56:38.063Z,13.08
2022-09-28T03:59:07.998Z,13.25
2022-09-28T04:01:39.292Z,14.58
2022-09-28T04:04:12.653Z,14.78
2022-09-28T04:06:43.028Z,14.55
2022-09-28T04:09:12.326Z,14.58
2022-09-28T04:11:59.755Z,14.68
2022-09-28T04:14:14.488Z,14.50
2022-09-28T04:16:44.550Z,15.48
2022-09-28T04:19:16.712Z,15.50
2022-09-28T04:21:51.931Z,16.30
2022-09-28T04:24:21.606Z,14.78
2022-09-28T04:26:50.974Z,16.95
2022-09-28T04:29:22.941Z,16.48
2022-09-28T04:31:55.344Z,15.55
2022-09-28T04:34:31.885Z,15.40
2022-09-28T04:36:59.822Z,15.25
2022-09-28T04:39:30.212Z,16.00
2022-09-28T04:42:00.030Z,16.48
2022-09-28T04:44:30.310Z,14.75
2022-09-28T04:47:05.347Z,15.35
2022-09-28T04:49:36.194Z,16.95
2022-09-28T04:52:07.961Z,16.37
2022-09-28T04:54:38.386Z,17.12
2022-09-28T04:57:09.830Z,16.65
2022-09-28T04:59:40.902Z,16.30
2022-09-28T05:02:13.886Z,14.90
2022-09-28T05:05:01.666Z,15.85
2022-09-28T05:07:42.333Z,15.10
2022-09-28T05:10:13.747Z,15.75
2022-09-28T05:12:44.212Z,16.40
2022-09-28T05:15:15.762Z,14.58
2022-09-28T05:17:45.620Z,15.83
2022-09-28T05:20:29.258Z,15.00
2022-09-28T05:22:59.284Z,15.25
2022-09-28T05:25:29.428Z,15.03
2022-09-28T05:28:01.501Z,15.05
2022-09-28T05:30:49.820Z,14.70
2022-09-28T05:33:44.873Z,15.15
2022-09-28T05:36:16.127Z,14.63
2022-09-28T05:38:47.902Z,13.30
2022-09-28T05:41:18.136Z,13.22
2022-09-28T05:43:48.647Z,13.03
2022-09-28T05:46:18.361Z,14.50
2022-09-28T05:48:47.694Z,13.62
2022-09-28T05:51:17.117Z,12.07
2022-09-28T05:53:46.566Z,12.53
2022-09-28T05:56:18.342Z,12.47
2022-09-28T05:58:47.902Z,13.40
2022-09-28T06:01:20.323Z,12.03
2022-09-28T06:03:51.525Z,12.15
2022-09-28T06:06:22.927Z,12.43
2022-09-28T06:08:53.124Z,11.03
2022-09-28T06:11:26.030Z,11.80
2022-09-28T06:13:57.774Z,12.43
2022-09-28T06:16:29.897Z,13.70
2022-09-28T06:18:59.486Z,13.78
2022-09-28T06:21:39.574Z,12.85
2022-09-28T06:24:10.240Z,13.13
2022-09-28T06:26:41.117Z,13.72
2022-09-28T06:29:10.070Z,13.75
2022-09-28T06:31:41.928Z,12.78
2022-09-28T06:34:12.355Z,13.90
2022-09-28T06:36:42.248Z,13.70
2022-09-28T06:39:12.715Z,14.13
2022-09-28T06:41:46.303Z,13.55
2022-09-28T06:44:18.997Z,12.35
2022-09-28T06:46:56.182Z,12.82
2022-09-28T06:49:27.464Z,13.72
2022-09-28T06:52:18.863Z,14.25
2022-09-28T06:55:10.496Z,12.00
2022-09-28T06:57:47.270Z,11.45
2022-09-28T07:00:18.723Z,11.80
2022-09-28T07:02:50.302Z,12.78
2022-09-28T07:05:23.505Z,12.30
2022-09-28T07:08:10.947Z,11.55
2022-09-28T07:10:44.965Z,11.03
2022-09-28T07:13:48.989Z,12.05
2022-09-28T07:16:03.135Z,12.18
2022-09-28T07:18:34.392Z,11.43
2022-09-28T07:21:06.198Z,11.48
2022-09-28T07:23:46.131Z,10.63
2022-09-28T07:26:25.574Z,11.48
2022-09-28T07:29:04.691Z,11.40
2022-09-28T07:31:44.201Z,11.10
2022-09-28T07:34:23.314Z,11.15
2022-09-28T07:37:02.664Z,11.05
2022-09-28T07:39:34.521Z,11.50
2022-09-28T07:42:05.433Z,11.15
2022-09-28T07:44:36.443Z,13.00
2022-09-28T07:47:06.156Z,11.80
2022-09-28T07:49:44.015Z,10.58
2022-09-28T07:52:23.325Z,12.05
2022-09-28T07:54:55.576Z,10.68
2022-09-28T07:57:26.884Z,10.80
2022-09-28T07:59:58.937Z,10.03
2022-09-28T08:02:32.139Z,9.90
2022-09-28T08:05:01.588Z,9.78
2022-09-28T08:07:32.139Z,10.13
2022-09-28T08:10:05.826Z,10.32
2022-09-28T08:12:41.249Z,10.83
2022-09-28T08:15:15.530Z,10.53
2022-09-28T08:17:58.015Z,10.85
2022-09-28T08:20:50.751Z,10.08
2022-09-28T08:23:18.167Z,10.38
2022-09-28T08:25:49.232Z,10.68
2022-09-28T08:28:18.704Z,11.83
2022-09-28T08:30:50.449Z,10.78
2022-09-28T08:33:28.750Z,11.50
2022-09-28T08:36:15.971Z,10.78
2022-09-28T08:38:46.742Z,10.82
2022-09-28T08:41:52.962Z,10.45
2022-09-28T08:44:47.676Z,11.03
2022-09-28T08:47:46.836Z,11.38
2022-09-28T08:50:26.753Z,9.78
2022-09-28T08:53:23.734Z,11.50
2022-09-28T08:56:03.427Z,10.82
2022-09-28T08:58:39.725Z,10.18
2022-09-28T09:01:11.604Z,9.47
2022-09-28T09:03:42.213Z,9.50
2022-09-28T09:06:50.242Z,9.03
2022-09-28T09:09:53.956Z,9.20
2022-09-28T09:12:39.417Z,8.53
2022-09-28T09:15:41.314Z,9.63
2022-09-28T09:18:43.987Z,10.23
2022-09-28T09:21:42.890Z,9.98
2022-09-28T09:24:27.265Z,10.00
2022-09-28T09:27:25.885Z,9.63
2022-09-28T09:30:14.498Z,9.33
2022-09-28T09:33:18.916Z,10.05
2022-09-28T09:36:38.390Z,10.35
2022-09-28T09:40:01.711Z,9.88
2022-09-28T09:43:14.735Z,10.32
2022-09-28T09:46:14.740Z,10.13
2022-09-28T09:49:20.260Z,9.30
2022-09-28T09:52:06.560Z,9.83
2022-09-28T09:55:01.759Z,10.08
2022-09-28T09:57:46.468Z,10.20
2022-09-28T10:00:21.643Z,10.30
2022-09-28T10:02:53.990Z,11.10
2022-09-28T10:05:27.466Z,9.68
2022-09-28T10:08:06.559Z,10.08
2022-09-28T10:10:39.414Z,11.40
2022-09-28T10:13:11.522Z,11.33
2022-09-28T10:15:40.999Z,10.28
2022-09-28T10:18:19.979Z,9.95
2022-09-28T10:21:16.679Z,10.70
2022-09-28T10:24:04.857Z,10.75
2022-09-28T10:26:37.616Z,10.20
2022-09-28T10:29:14.510Z,10.40
2022-09-28T10:31:52.385Z,10.68
2022-09-28T10:34:30.284Z,10.28
2022-09-28T10:37:08.833Z,11.00
2022-09-28T10:39:53.651Z,10.80
2022-09-28T10:42:26.580Z,10.68
2022-09-28T10:45:06.737Z,11.75
2022-09-28T10:47:40.398Z,10.58
2022-09-28T10:50:22.945Z,10.88
2022-09-28T10:52:54.042Z,10.23
2022-09-28T10:55:32.758Z,10.68
2022-09-28T10:58:23.831Z,11.22
2022-09-28T11:00:55.747Z,9.88
2022-09-28T11:03:27.450Z,10.68
2022-09-28T11:06:02.443Z,11.15
2022-09-28T11:08:39.962Z,10.13
2022-09-28T11:11:15.328Z,10.80
2022-09-28T11:13:55.059Z,11.50
2022-09-28T11:16:31.606Z,10.32
2022-09-28T11:19:22.955Z,10.35
2022-09-28T11:21:53.639Z,12.10
2022-09-28T11:24:26.973Z,12.15
2022-09-28T11:26:59.860Z,12.35
2022-09-28T11:29:43.708Z,12.98
2022-09-28T11:32:44.580Z,13.75
2022-09-28T11:35:32.690Z,13.08
2022-09-28T11:38:13.333Z,13.00
2022-09-28T11:41:10.282Z,11.97
2022-09-28T11:44:18.952Z,13.40
2022-09-28T11:47:33.133Z,11.93
2022-09-28T11:50:31.385Z,13.45
2022-09-28T11:53:33.541Z,12.43
2022-09-28T11:56:31.049Z,12.53
2022-09-28T11:59:07.273Z,12.18
2022-09-28T12:01:51.274Z,11.12
2022-09-28T12:04:40.538Z,11.78
2022-09-28T12:07:36.668Z,10.95
2022-09-28T12:10:24.104Z,11.10
2022-09-28T12:13:09.919Z,10.30
2022-09-28T12:16:17.148Z,10.90
2022-09-28T12:18:49.179Z,11.10
2022-09-28T12:21:38.369Z,11.85
2022-09-28T12:24:26.907Z,11.97
2022-09-28T12:27:03.939Z,10.53
2022-09-28T12:30:04.675Z,11.08
2022-09-28T12:32:45.283Z,11.12
2022-09-28T12:35:17.990Z,11.05
2022-09-28T12:38:33.547Z,11.70
2022-09-28T12:41:27.620Z,12.20
2022-09-28T12:44:17.203Z,12.93
2022-09-28T12:47:40.597Z,12.75
2022-09-28T12:50:39.544Z,46.58
2022-09-28T12:53:52.752Z,16.67
2022-09-28T12:56:39.114Z,14.35
2022-09-28T12:59:19.105Z,15.18
2022-09-28T13:02:14.490Z,13.58
2022-09-28T13:05:18.791Z,12.75
2022-09-28T13:08:26.963Z,12.10
2022-09-28T13:11:08.148Z,13.48
2022-09-28T13:14:04.990Z,14.68
2022-09-28T13:16:43.188Z,14.85
2022-09-28T13:19:32.569Z,14.43
2022-09-28T13:22:45.103Z,15.03
2022-09-28T13:25:19.494Z,19.82
2022-09-28T13:28:00.603Z,16.10
2022-09-28T13:30:31.184Z,14.83
2022-09-28T13:33:03.051Z,14.95
2022-09-28T13:35:33.037Z,15.50
2022-09-28T13:38:22.903Z,15.90
2022-09-28T13:41:10.733Z,15.70
2022-09-28T13:47:09.602Z,15.38
2022-09-28T13:50:00.149Z,14.90
2022-09-28T13:53:06.680Z,16.40
2022-09-28T13:56:14.714Z,16.27
2022-09-28T13:59:05.799Z,15.23
2022-09-28T14:01:44.245Z,13.25
2022-09-28T14:04:25.888Z,15.40
2022-09-28T14:06:57.326Z,12.30
2022-09-28T14:09:48.191Z,13.85
2022-09-28T14:12:32.635Z,11.85
2022-09-28T14:15:02.240Z,12.13
2022-09-28T14:17:47.655Z,12.00
2022-09-28T14:20:17.734Z,11.65
2022-09-28T14:23:09.164Z,11.88
2022-09-28T14:26:13.695Z,10.72
2022-09-28T14:28:49.046Z,10.55
2022-09-28T14:31:25.690Z,10.00
2022-09-28T14:33:57.396Z,10.13
2022-09-28T14:36:49.645Z,10.63
2022-09-28T14:39:40.895Z,10.55
2022-09-28T14:42:15.682Z,10.35
2022-09-28T14:45:08.001Z,10.48
2022-09-28T14:47:49.151Z,10.40
2022-09-28T14:50:29.087Z,10.43
2022-09-28T14:53:20.086Z,11.22
2022-09-28T14:55:58.768Z,10.15
2022-09-28T14:58:29.476Z,10.40
2022-09-28T15:01:02.929Z,11.35
2022-09-28T15:03:34.052Z,10.95
2022-09-28T15:06:03.696Z,10.90
2022-09-28T15:08:38.870Z,11.83
2022-09-28T15:11:13.110Z,10.90
2022-09-28T15:13:43.360Z,10.38
2022-09-28T15:16:14.339Z,11.45
2022-09-28T15:18:58.842Z,11.78
2022-09-28T15:21:41.650Z,12.85
2022-09-28T15:24:34.524Z,11.70
2022-09-28T15:27:18.089Z,11.33
2022-09-28T15:30:04.680Z,13.40
2022-09-28T15:32:34.317Z,13.65
2022-09-28T15:35:23.832Z,14.55
2022-09-28T15:37:54.019Z,12.30
2022-09-28T15:40:33.724Z,12.93
2022-09-28T15:43:09.065Z,13.35
2022-09-28T15:45:40.314Z,14.58
2022-09-28T15:48:33.304Z,13.45
2022-09-28T15:51:09.541Z,13.10
2022-09-28T15:54:05.221Z,13.95
2022-09-28T15:56:37.167Z,15.53
2022-09-28T15:59:23.278Z,16.02
2022-09-28T16:02:10.542Z,15.95
2022-09-28T16:04:55.445Z,15.88
2022-09-28T16:07:34.387Z,16.15
2022-09-28T16:10:15.344Z,17.48
2022-09-28T16:12:48.864Z,18.80
2022-09-28T16:15:25.737Z,19.12
2022-09-28T16:18:02.289Z,18.32
2022-09-28T16:20:39.233Z,18.17
2022-09-28T16:23:27.486Z,18.50
2022-09-28T16:26:11.504Z,19.30
2022-09-28T16:28:48.161Z,18.90
2022-09-28T16:31:27.744Z,19.55
2022-09-28T16:34:02.011Z,19.25
2022-09-28T16:36:43.361Z,19.62
2022-09-28T16:39:14.242Z,21.20
2022-09-28T16:41:56.171Z,22.32
2022-09-28T16:44:27.016Z,19.82
2022-09-28T16:47:00.417Z,21.05
2022-09-28T16:49:31.313Z,22.67
2022-09-28T16:52:02.144Z,21.90
2022-09-28T16:54:49.767Z,20.92
2022-09-28T16:57:19.115Z,20.45
2022-09-28T16:59:48.512Z,20.30
2022-09-28T17:02:45.303Z,20.65
2022-09-28T17:04:53.636Z,20.75
2022-09-28T17:07:23.987Z,20.92
2022-09-28T17:09:52.836Z,21.15
2022-09-28T17:12:27.080Z,19.92
2022-09-28T17:14:56.375Z,20.32
2022-09-28T17:17:29.439Z,20.80
2022-09-28T17:19:59.105Z,20.82
2022-09-28T17:22:28.392Z,18.27
2022-09-28T17:24:58.651Z,18.27
2022-09-28T17:27:28.307Z,13.68
2022-09-28T17:29:57.852Z,13.10
2022-09-28T17:32:26.962Z,10.82
2022-09-28T17:35:19.964Z,7.97
2022-09-28T17:37:26.635Z,5.90
2022-09-28T17:39:57.183Z,4.22
2022-09-28T17:42:26.787Z,3.90
2022-09-28T17:44:56.239Z,3.67
2022-09-28T17:47:25.425Z,3.05
2022-09-28T17:49:54.966Z,2.62
2022-09-28T17:52:24.040Z,3.55
2022-09-28T17:54:52.951Z,3.20
2022-09-28T17:57:22.135Z,3.10
2022-09-28T17:59:51.829Z,2.72
2022-09-28T18:02:23.619Z,3.27
2022-09-28T18:04:54.172Z,2.90
2022-09-28T18:07:24.521Z,3.22
2022-09-28T18:09:56.226Z,3.33
2022-09-28T18:12:25.563Z,3.08
2022-09-28T18:14:55.369Z,3.00
2022-09-28T18:17:24.800Z,2.83
2022-09-28T18:19:54.301Z,3.35
2022-09-28T18:22:24.754Z,3.67
2022-09-28T18:24:54.172Z,10.95
2022-09-28T18:27:24.107Z,3.30
2022-09-28T18:29:54.624Z,3.20
2022-09-28T18:32:23.873Z,3.20
2022-09-28T18:34:53.710Z,3.50
2022-09-28T18:37:23.562Z,3.47
2022-09-28T18:39:52.367Z,3.10
2022-09-28T18:42:21.638Z,3.55
2022-09-28T18:44:50.696Z,3.30
2022-09-28T18:47:20.699Z,3.47
2022-09-28T18:49:50.899Z,3.10
2022-09-28T18:52:19.837Z,3.22
2022-09-28T18:54:50.237Z,3.33
2022-09-28T18:57:19.085Z,3.35
2022-09-28T18:59:48.102Z,3.72
2022-09-28T19:02:17.798Z,3.50
2022-09-28T19:04:47.089Z,3.30
2022-09-28T19:07:16.744Z,3.00
2022-09-28T19:09:46.420Z,3.22
2022-09-28T19:12:16.478Z,3.27
2022-09-28T19:14:46.764Z,3.42
2022-09-28T19:17:17.949Z,3.60
2022-09-28T19:19:47.277Z,3.35
2022-09-28T19:22:17.622Z,3.40
2022-09-28T19:24:47.180Z,3.30
2022-09-28T19:27:18.513Z,4.10
2022-09-28T19:29:47.739Z,3.80
2022-09-28T19:32:17.813Z,4.22
2022-09-28T19:34:48.511Z,3.67
2022-09-28T19:37:18.217Z,3.50
2022-09-28T19:39:48.309Z,3.25
2022-09-28T19:42:17.114Z,3.50
2022-09-28T19:44:47.485Z,3.67
2022-09-28T19:47:19.305Z,3.40
2022-09-28T19:49:49.452Z,3.30
2022-09-28T19:52:18.995Z,3.10
2022-09-28T19:54:53.795Z,3.55
2022-09-28T19:57:25.752Z,3.17
2022-09-28T19:59:59.228Z,3.08
2022-09-28T20:02:25.918Z,3.58
2022-09-28T20:04:55.195Z,2.85
2022-09-28T20:07:23.921Z,3.05
2022-09-28T20:09:54.117Z,3.27
2022-09-28T20:12:23.908Z,3.25
2022-09-28T20:14:54.087Z,3.10
2022-09-28T20:17:23.067Z,3.25
2022-09-28T20:19:52.177Z,3.27
2022-09-28T20:22:21.017Z,3.15
2022-09-28T20:24:51.283Z,3.40
2022-09-28T20:27:26.089Z,3.00
2022-09-28T20:29:51.937Z,3.10
2022-09-28T20:32:21.625Z,3.00
2022-09-28T20:34:51.801Z,3.42
2022-09-28T20:37:23.871Z,3.20
2022-09-28T20:39:55.196Z,3.40
2022-09-28T20:42:25.150Z,3.30
2022-09-28T20:44:54.826Z,3.20
2022-09-28T20:47:24.677Z,3.30
2022-09-28T20:49:55.786Z,3.50
2022-09-28T20:52:25.603Z,3.77
2022-09-28T20:54:55.545Z,3.40
2022-09-28T20:57:25.863Z,3.65
2022-09-28T20:59:55.061Z,2.98
2022-09-28T21:02:24.864Z,3.35
2022-09-28T21:04:54.402Z,3.20
2022-09-28T21:07:24.221Z,4.30
2022-09-28T21:09:53.397Z,3.33
2022-09-28T21:12:22.426Z,3.08
2022-09-28T21:14:53.615Z,3.10
2022-09-28T21:17:24.075Z,3.40
2022-09-28T21:19:54.311Z,3.15
2022-09-28T21:22:23.969Z,3.70
2022-09-28T21:24:52.755Z,3.50
2022-09-28T21:27:21.651Z,3.25
2022-09-28T21:29:51.500Z,3.00
2022-09-28T21:32:20.660Z,3.77
2022-09-28T21:34:50.240Z,3.62
2022-09-28T21:37:20.210Z,4.37
2022-09-28T21:39:49.566Z,4.40
2022-09-28T21:42:19.445Z,4.70
2022-09-28T21:44:48.358Z,4.47
2022-09-28T21:47:18.175Z,4.95
2022-09-28T21:49:46.893Z,4.50
2022-09-28T21:52:17.667Z,4.80
2022-09-28T21:54:46.519Z,4.65
2022-09-28T21:57:17.552Z,4.87
2022-09-28T21:59:48.991Z,4.58
2022-09-28T22:02:21.512Z,4.67
2022-09-28T22:04:51.424Z,5.37
2022-09-28T22:07:21.835Z,5.58
2022-09-28T22:09:53.697Z,5.00
2022-09-28T22:12:23.878Z,5.03
2022-09-28T22:14:54.499Z,5.50
2022-09-28T22:17:24.347Z,5.97
2022-09-28T22:19:53.611Z,6.62
2022-09-28T22:22:26.158Z,5.65
2022-09-28T22:24:54.706Z,6.40
2022-09-28T22:27:24.400Z,5.80
2022-09-28T22:29:54.153Z,6.08
2022-09-28T22:32:27.227Z,6.20
2022-09-28T22:34:58.163Z,5.30
2022-09-28T22:37:27.799Z,5.20
2022-09-28T22:39:57.399Z,5.60
2022-09-28T22:42:27.094Z,5.72
2022-09-28T22:44:56.271Z,5.87
2022-09-28T22:47:26.407Z,5.72
2022-09-28T22:49:56.553Z,5.45
2022-09-28T22:52:26.744Z,6.15
2022-09-28T22:54:55.874Z,5.80
2022-09-28T22:57:25.819Z,6.10
2022-09-28T22:59:55.440Z,5.83
2022-09-28T23:02:25.142Z,5.58
2022-09-28T23:04:54.172Z,5.47
2022-09-28T23:07:23.263Z,5.58
2022-09-28T23:09:53.737Z,5.45
2022-09-28T23:12:23.382Z,5.75
2022-09-28T23:14:53.006Z,5.42
2022-09-28T23:17:22.696Z,5.55
2022-09-28T23:19:53.164Z,5.47
2022-09-28T23:22:22.553Z,5.42
2022-09-28T23:24:52.192Z,5.55
2022-09-28T23:27:22.473Z,5.42
2022-09-28T23:29:53.659Z,8.28
2022-09-28T23:32:23.377Z,7.45
2022-09-28T23:34:53.630Z,6.53
2022-09-28T23:37:23.036Z,6.47
2022-09-28T23:39:53.547Z,5.70
2022-09-28T23:42:23.590Z,5.70
2022-09-28T23:44:54.401Z,5.72
2022-09-28T23:47:23.590Z,6.60
2022-09-28T23:49:53.146Z,6.30
2022-09-28T23:52:22.967Z,5.67
2022-09-28T23:54:52.762Z,5.62
2022-09-28T23:57:22.409Z,6.10
2022-09-28T23:59:52.257Z,6.12
